Airport ICAO


11:53 UTC

26°C

Clear skies


An affordable passengers' Moving Map for your aircraft. Made for the iPad and the iPhone
More information here

LFPN Le Noble


Toussous FRANCE   VFR CAVOK


METAR LFPN 191130Z AUTO 21010KT CAVOK 26/13 Q1024 NOSIG 0h23min

TAF LFPN 191100Z 1912/1921 19009KT CAVOK BECMG 1919/1921 VRB03KT 0h53min





NOTAMS

OPEN